sensor_id;sensor_type;location;lat;lon;timestamp;temperature;humidity
46752;DHT22;32497;48.936;9.270;2022-08-11T00:03:10;19.90;44.40
46752;DHT22;32497;48.936;9.270;2022-08-11T00:08:20;19.80;44.90
46752;DHT22;32497;48.936;9.270;2022-08-11T00:13:31;19.80;44.70
46752;DHT22;32497;48.936;9.270;2022-08-11T00:18:39;19.70;45.60
46752;DHT22;32497;48.936;9.270;2022-08-11T00:23:43;19.70;45.10
46752;DHT22;32497;48.936;9.270;2022-08-11T00:28:45;19.70;45.10
46752;DHT22;32497;48.936;9.270;2022-08-11T00:33:48;19.60;45.30
46752;DHT22;32497;48.936;9.270;2022-08-11T00:38:51;19.50;46.00
46752;DHT22;32497;48.936;9.270;2022-08-11T00:44:09;19.50;46.20
46752;DHT22;32497;48.936;9.270;2022-08-11T00:49:27;19.40;46.70
46752;DHT22;32497;48.936;9.270;2022-08-11T00:55:14;19.30;46.20
46752;DHT22;32497;48.936;9.270;2022-08-11T01:00:24;19.30;46.10
46752;DHT22;32497;48.936;9.270;2022-08-11T01:05:55;19.30;46.60
46752;DHT22;32497;48.936;9.270;2022-08-11T01:11:21;19.30;46.70
46752;DHT22;32497;48.936;9.270;2022-08-11T01:45:24;18.90;48.30
46752;DHT22;32497;48.936;9.270;2022-08-11T01:50:38;18.90;47.50
46752;DHT22;32497;48.936;9.270;2022-08-11T01:55:51;19.00;47.90
46752;DHT22;32497;48.936;9.270;2022-08-11T02:01:00;19.00;48.00
46752;DHT22;32497;48.936;9.270;2022-08-11T02:06:10;19.10;47.30
46752;DHT22;32497;48.936;9.270;2022-08-11T02:11:22;19.10;47.60
46752;DHT22;32497;48.936;9.270;2022-08-11T02:16:34;18.90;48.70
46752;DHT22;32497;48.936;9.270;2022-08-11T02:21:44;18.80;47.90
46752;DHT22;32497;48.936;9.270;2022-08-11T02:26:52;18.70;49.20
46752;DHT22;32497;48.936;9.270;2022-08-11T02:32:04;18.60;49.30
46752;DHT22;32497;48.936;9.270;2022-08-11T02:37:15;18.50;49.60
46752;DHT22;32497;48.936;9.270;2022-08-11T02:42:25;18.50;49.90
46752;DHT22;32497;48.936;9.270;2022-08-11T02:47:38;18.30;49.50
46752;DHT22;32497;48.936;9.270;2022-08-11T02:52:50;18.30;50.60
46752;DHT22;32497;48.936;9.270;2022-08-11T02:58:01;18.40;49.50
46752;DHT22;32497;48.936;9.270;2022-08-11T03:03:14;18.40;49.10
46752;DHT22;32497;48.936;9.270;2022-08-11T03:13:58;18.50;49.90
46752;DHT22;32497;48.936;9.270;2022-08-11T03:19:13;18.40;50.50
46752;DHT22;32497;48.936;9.270;2022-08-11T03:24:20;18.30;50.10
46752;DHT22;32497;48.936;9.270;2022-08-11T03:29:31;18.20;50.30
46752;DHT22;32497;48.936;9.270;2022-08-11T03:34:37;18.20;51.20
46752;DHT22;32497;48.936;9.270;2022-08-11T03:39:46;18.20;51.20
46752;DHT22;32497;48.936;9.270;2022-08-11T03:44:58;18.20;50.80
46752;DHT22;32497;48.936;9.270;2022-08-11T03:50:06;18.10;51.20
46752;DHT22;32497;48.936;9.270;2022-08-11T03:55:22;18.10;51.40
46752;DHT22;32497;48.936;9.270;2022-08-11T04:00:47;18.00;51.50
46752;DHT22;32497;48.936;9.270;2022-08-11T04:06:16;17.90;51.10
46752;DHT22;32497;48.936;9.270;2022-08-11T04:17:16;17.80;51.80
46752;DHT22;32497;48.936;9.270;2022-08-11T04:23:10;17.80;51.70
46752;DHT22;32497;48.936;9.270;2022-08-11T04:28:47;17.70;52.20
46752;DHT22;32497;48.936;9.270;2022-08-11T04:34:03;17.70;52.40
46752;DHT22;32497;48.936;9.270;2022-08-11T04:39:12;17.70;52.50
46752;DHT22;32497;48.936;9.270;2022-08-11T04:50:07;17.70;52.70
46752;DHT22;32497;48.936;9.270;2022-08-11T04:55:36;17.80;53.20
46752;DHT22;32497;48.936;9.270;2022-08-11T05:00:48;17.90;52.80
46752;DHT22;32497;48.936;9.270;2022-08-11T05:06:15;18.00;53.40
46752;DHT22;32497;48.936;9.270;2022-08-11T05:11:49;18.20;54.10
46752;DHT22;32497;48.936;9.270;2022-08-11T05:16:55;17.80;53.40
46752;DHT22;32497;48.936;9.270;2022-08-11T05:21:58;17.80;54.70
46752;DHT22;32497;48.936;9.270;2022-08-11T05:27:01;17.90;55.70
46752;DHT22;32497;48.936;9.270;2022-08-11T05:32:03;18.00;55.70
46752;DHT22;32497;48.936;9.270;2022-08-11T05:37:08;18.20;55.90
46752;DHT22;32497;48.936;9.270;2022-08-11T05:42:10;18.20;56.20
46752;DHT22;32497;48.936;9.270;2022-08-11T05:47:21;18.20;54.50
46752;DHT22;32497;48.936;9.270;2022-08-11T05:52:25;18.40;55.20
46752;DHT22;32497;48.936;9.270;2022-08-11T05:57:29;18.60;54.90
46752;DHT22;32497;48.936;9.270;2022-08-11T06:02:31;18.80;53.70
46752;DHT22;32497;48.936;9.270;2022-08-11T06:07:34;19.00;52.90
46752;DHT22;32497;48.936;9.270;2022-08-11T06:12:36;19.20;52.30
46752;DHT22;32497;48.936;9.270;2022-08-11T06:17:43;19.40;52.90
46752;DHT22;32497;48.936;9.270;2022-08-11T06:22:47;19.60;50.80
46752;DHT22;32497;48.936;9.270;2022-08-11T06:27:55;20.00;51.20
46752;DHT22;32497;48.936;9.270;2022-08-11T06:32:57;20.40;50.60
46752;DHT22;32497;48.936;9.270;2022-08-11T06:38:06;20.70;49.70
46752;DHT22;32497;48.936;9.270;2022-08-11T06:43:15;20.90;47.80
46752;DHT22;32497;48.936;9.270;2022-08-11T06:48:21;21.10;47.90
46752;DHT22;32497;48.936;9.270;2022-08-11T06:53:24;21.50;48.70
46752;DHT22;32497;48.936;9.270;2022-08-11T06:58:27;21.70;46.20
46752;DHT22;32497;48.936;9.270;2022-08-11T07:03:31;21.90;46.60
46752;DHT22;32497;48.936;9.270;2022-08-11T07:14:05;22.40;46.10
46752;DHT22;32497;48.936;9.270;2022-08-11T07:19:07;22.70;45.40
46752;DHT22;32497;48.936;9.270;2022-08-11T07:24:15;22.70;43.60
46752;DHT22;32497;48.936;9.270;2022-08-11T07:29:17;22.70;44.40
46752;DHT22;32497;48.936;9.270;2022-08-11T07:34:21;22.90;45.80
46752;DHT22;32497;48.936;9.270;2022-08-11T07:39:26;23.20;44.70
46752;DHT22;32497;48.936;9.270;2022-08-11T07:44:28;23.40;43.50
46752;DHT22;32497;48.936;9.270;2022-08-11T07:49:33;23.50;44.10
46752;DHT22;32497;48.936;9.270;2022-08-11T07:54:37;23.70;43.70
46752;DHT22;32497;48.936;9.270;2022-08-11T07:59:40;23.70;43.60
46752;DHT22;32497;48.936;9.270;2022-08-11T08:04:41;23.70;42.80
46752;DHT22;32497;48.936;9.270;2022-08-11T08:09:44;23.80;43.20
46752;DHT22;32497;48.936;9.270;2022-08-11T08:14:46;23.70;42.10
46752;DHT22;32497;48.936;9.270;2022-08-11T08:19:48;23.90;41.70
46752;DHT22;32497;48.936;9.270;2022-08-11T08:24:51;24.30;41.40
46752;DHT22;32497;48.936;9.270;2022-08-11T08:29:53;24.70;41.60
46752;DHT22;32497;48.936;9.270;2022-08-11T08:34:55;25.00;39.70
46752;DHT22;32497;48.936;9.270;2022-08-11T08:39:58;25.20;40.10
46752;DHT22;32497;48.936;9.270;2022-08-11T08:45:04;25.50;38.60
46752;DHT22;32497;48.936;9.270;2022-08-11T08:50:08;25.60;37.40
46752;DHT22;32497;48.936;9.270;2022-08-11T08:55:17;25.60;38.10
46752;DHT22;32497;48.936;9.270;2022-08-11T09:00:18;25.70;37.00
46752;DHT22;32497;48.936;9.270;2022-08-11T09:05:20;25.90;36.10
46752;DHT22;32497;48.936;9.270;2022-08-11T09:10:22;26.10;35.30
46752;DHT22;32497;48.936;9.270;2022-08-11T09:15:24;26.30;34.60
46752;DHT22;32497;48.936;9.270;2022-08-11T09:20:26;26.40;34.70
46752;DHT22;32497;48.936;9.270;2022-08-11T09:25:30;26.90;33.00
46752;DHT22;32497;48.936;9.270;2022-08-11T09:30:32;27.00;32.70
46752;DHT22;32497;48.936;9.270;2022-08-11T09:35:34;26.90;32.60
46752;DHT22;32497;48.936;9.270;2022-08-11T09:40:37;27.30;32.20
46752;DHT22;32497;48.936;9.270;2022-08-11T09:45:38;28.10;31.50
46752;DHT22;32497;48.936;9.270;2022-08-11T09:50:40;28.10;31.00
46752;DHT22;32497;48.936;9.270;2022-08-11T09:55:43;28.80;27.50
46752;DHT22;32497;48.936;9.270;2022-08-11T10:00:47;28.30;29.20
46752;DHT22;32497;48.936;9.270;2022-08-11T10:05:52;28.80;29.10
46752;DHT22;32497;48.936;9.270;2022-08-11T10:10:55;28.90;28.30
46752;DHT22;32497;48.936;9.270;2022-08-11T10:15:59;28.70;28.40
46752;DHT22;32497;48.936;9.270;2022-08-11T10:21:04;28.80;29.20
46752;DHT22;32497;48.936;9.270;2022-08-11T10:26:08;28.80;28.90
46752;DHT22;32497;48.936;9.270;2022-08-11T10:31:09;28.80;27.60
46752;DHT22;32497;48.936;9.270;2022-08-11T10:36:10;28.70;27.80
46752;DHT22;32497;48.936;9.270;2022-08-11T10:41:13;28.90;28.40
46752;DHT22;32497;48.936;9.270;2022-08-11T10:46:14;28.70;28.80
46752;DHT22;32497;48.936;9.270;2022-08-11T10:51:16;29.10;27.80
46752;DHT22;32497;48.936;9.270;2022-08-11T10:56:19;29.30;27.90
46752;DHT22;32497;48.936;9.270;2022-08-11T11:01:23;29.20;28.10
46752;DHT22;32497;48.936;9.270;2022-08-11T11:06:30;29.40;27.90
46752;DHT22;32497;48.936;9.270;2022-08-11T11:11:37;29.30;28.40
46752;DHT22;32497;48.936;9.270;2022-08-11T11:16:40;29.90;27.00
46752;DHT22;32497;48.936;9.270;2022-08-11T11:21:41;29.30;27.60
46752;DHT22;32497;48.936;9.270;2022-08-11T11:26:51;29.60;27.70
46752;DHT22;32497;48.936;9.270;2022-08-11T11:32:15;30.00;26.50
46752;DHT22;32497;48.936;9.270;2022-08-11T11:37:16;29.70;27.60
46752;DHT22;32497;48.936;9.270;2022-08-11T11:42:20;29.90;26.60
46752;DHT22;32497;48.936;9.270;2022-08-11T11:47:22;30.40;26.70
46752;DHT22;32497;48.936;9.270;2022-08-11T11:52:23;30.90;26.00
46752;DHT22;32497;48.936;9.270;2022-08-11T11:57:27;31.20;26.00
46752;DHT22;32497;48.936;9.270;2022-08-11T12:02:28;30.70;25.90
46752;DHT22;32497;48.936;9.270;2022-08-11T12:07:30;31.30;23.80
46752;DHT22;32497;48.936;9.270;2022-08-11T12:12:33;31.80;24.30
46752;DHT22;32497;48.936;9.270;2022-08-11T12:17:35;32.20;23.50
46752;DHT22;32497;48.936;9.270;2022-08-11T12:22:37;32.70;23.90
46752;DHT22;32497;48.936;9.270;2022-08-11T12:27:40;31.90;23.90
46752;DHT22;32497;48.936;9.270;2022-08-11T12:32:42;32.10;23.70
46752;DHT22;32497;48.936;9.270;2022-08-11T12:37:46;32.70;23.50
46752;DHT22;32497;48.936;9.270;2022-08-11T12:42:49;32.90;22.00
46752;DHT22;32497;48.936;9.270;2022-08-11T12:47:51;33.30;21.40
46752;DHT22;32497;48.936;9.270;2022-08-11T12:52:54;33.40;20.20
46752;DHT22;32497;48.936;9.270;2022-08-11T12:57:57;33.50;20.80
46752;DHT22;32497;48.936;9.270;2022-08-11T13:02:58;33.60;20.30
46752;DHT22;32497;48.936;9.270;2022-08-11T13:08:00;33.30;21.70
46752;DHT22;32497;48.936;9.270;2022-08-11T13:13:03;33.30;21.10
46752;DHT22;32497;48.936;9.270;2022-08-11T13:18:06;32.60;20.70
46752;DHT22;32497;48.936;9.270;2022-08-11T13:23:09;33.40;21.70
46752;DHT22;32497;48.936;9.270;2022-08-11T13:28:11;33.40;22.20
46752;DHT22;32497;48.936;9.270;2022-08-11T13:33:13;33.70;19.00
46752;DHT22;32497;48.936;9.270;2022-08-11T13:38:15;32.80;20.60
46752;DHT22;32497;48.936;9.270;2022-08-11T13:43:21;33.90;21.30
46752;DHT22;32497;48.936;9.270;2022-08-11T13:48:22;34.30;21.70
46752;DHT22;32497;48.936;9.270;2022-08-11T13:53:25;34.60;20.60
46752;DHT22;32497;48.936;9.270;2022-08-11T13:58:28;34.20;18.60
46752;DHT22;32497;48.936;9.270;2022-08-11T14:03:31;33.50;20.00
46752;DHT22;32497;48.936;9.270;2022-08-11T14:08:35;33.80;20.60
46752;DHT22;32497;48.936;9.270;2022-08-11T14:13:41;34.30;18.60
46752;DHT22;32497;48.936;9.270;2022-08-11T14:18:45;34.20;18.90
46752;DHT22;32497;48.936;9.270;2022-08-11T14:23:48;35.20;20.10
46752;DHT22;32497;48.936;9.270;2022-08-11T14:28:53;35.30;20.30
46752;DHT22;32497;48.936;9.270;2022-08-11T14:33:56;34.80;19.30
46752;DHT22;32497;48.936;9.270;2022-08-11T14:38:57;34.80;19.90
46752;DHT22;32497;48.936;9.270;2022-08-11T14:44:00;34.70;19.00
46752;DHT22;32497;48.936;9.270;2022-08-11T14:49:01;35.10;20.90
46752;DHT22;32497;48.936;9.270;2022-08-11T14:54:03;34.60;19.50
46752;DHT22;32497;48.936;9.270;2022-08-11T14:59:05;34.70;21.20
46752;DHT22;32497;48.936;9.270;2022-08-11T15:04:07;35.20;19.30
46752;DHT22;32497;48.936;9.270;2022-08-11T15:09:08;34.40;19.10
46752;DHT22;32497;48.936;9.270;2022-08-11T15:14:11;34.50;20.00
46752;DHT22;32497;48.936;9.270;2022-08-11T15:19:13;34.70;20.30
46752;DHT22;32497;48.936;9.270;2022-08-11T15:24:15;34.50;18.00
46752;DHT22;32497;48.936;9.270;2022-08-11T15:29:20;34.20;21.10
46752;DHT22;32497;48.936;9.270;2022-08-11T15:34:26;34.00;17.90
46752;DHT22;32497;48.936;9.270;2022-08-11T15:39:33;33.60;20.90
46752;DHT22;32497;48.936;9.270;2022-08-11T15:44:40;33.70;22.20
46752;DHT22;32497;48.936;9.270;2022-08-11T15:49:43;33.90;18.10
46752;DHT22;32497;48.936;9.270;2022-08-11T15:54:46;33.70;18.00
46752;DHT22;32497;48.936;9.270;2022-08-11T15:59:49;33.80;21.30
46752;DHT22;32497;48.936;9.270;2022-08-11T16:04:51;33.70;20.80
46752;DHT22;32497;48.936;9.270;2022-08-11T16:09:56;33.60;19.70
46752;DHT22;32497;48.936;9.270;2022-08-11T16:15:02;33.40;20.20
46752;DHT22;32497;48.936;9.270;2022-08-11T16:20:04;33.30;19.30
46752;DHT22;32497;48.936;9.270;2022-08-11T16:25:09;32.20;20.80
46752;DHT22;32497;48.936;9.270;2022-08-11T16:30:12;32.10;23.00
46752;DHT22;32497;48.936;9.270;2022-08-11T16:35:15;31.70;22.30
46752;DHT22;32497;48.936;9.270;2022-08-11T16:40:18;31.50;22.80
46752;DHT22;32497;48.936;9.270;2022-08-11T16:45:22;31.00;22.70
46752;DHT22;32497;48.936;9.270;2022-08-11T16:50:23;30.70;23.90
46752;DHT22;32497;48.936;9.270;2022-08-11T16:55:25;30.30;24.60
46752;DHT22;32497;48.936;9.270;2022-08-11T17:00:28;29.50;29.00
46752;DHT22;32497;48.936;9.270;2022-08-11T17:05:32;29.20;25.60
46752;DHT22;32497;48.936;9.270;2022-08-11T17:10:39;28.90;25.30
46752;DHT22;32497;48.936;9.270;2022-08-11T17:15:46;29.00;26.40
46752;DHT22;32497;48.936;9.270;2022-08-11T17:20:48;28.70;26.20
46752;DHT22;32497;48.936;9.270;2022-08-11T17:25:50;28.50;25.20
46752;DHT22;32497;48.936;9.270;2022-08-11T17:30:53;28.30;25.90
46752;DHT22;32497;48.936;9.270;2022-08-11T17:35:55;28.30;26.20
46752;DHT22;32497;48.936;9.270;2022-08-11T17:40:59;28.20;26.60
46752;DHT22;32497;48.936;9.270;2022-08-11T17:46:02;28.00;25.80
46752;DHT22;32497;48.936;9.270;2022-08-11T17:51:06;27.80;25.70
46752;DHT22;32497;48.936;9.270;2022-08-11T17:56:08;27.60;27.20
46752;DHT22;32497;48.936;9.270;2022-08-11T18:01:12;27.60;26.10
46752;DHT22;32497;48.936;9.270;2022-08-11T18:06:16;27.30;26.90
46752;DHT22;32497;48.936;9.270;2022-08-11T18:11:17;27.10;26.80
46752;DHT22;32497;48.936;9.270;2022-08-11T18:16:20;27.00;26.60
46752;DHT22;32497;48.936;9.270;2022-08-11T18:21:22;26.90;28.70
46752;DHT22;32497;48.936;9.270;2022-08-11T18:26:25;26.70;29.90
46752;DHT22;32497;48.936;9.270;2022-08-11T18:31:32;26.60;29.90
46752;DHT22;32497;48.936;9.270;2022-08-11T18:36:35;26.30;30.60
46752;DHT22;32497;48.936;9.270;2022-08-11T18:41:38;26.10;29.80
46752;DHT22;32497;48.936;9.270;2022-08-11T18:46:43;25.90;30.20
46752;DHT22;32497;48.936;9.270;2022-08-11T18:51:46;25.70;31.20
46752;DHT22;32497;48.936;9.270;2022-08-11T18:56:48;25.40;30.20
46752;DHT22;32497;48.936;9.270;2022-08-11T19:01:54;25.20;30.20
46752;DHT22;32497;48.936;9.270;2022-08-11T19:06:57;25.20;31.20
46752;DHT22;32497;48.936;9.270;2022-08-11T19:11:59;25.00;31.40
46752;DHT22;32497;48.936;9.270;2022-08-11T19:17:03;24.90;31.00
46752;DHT22;32497;48.936;9.270;2022-08-11T19:22:06;24.80;31.30
46752;DHT22;32497;48.936;9.270;2022-08-11T19:27:09;24.70;32.00
46752;DHT22;32497;48.936;9.270;2022-08-11T19:32:13;24.50;32.00
46752;DHT22;32497;48.936;9.270;2022-08-11T19:37:15;24.40;32.10
46752;DHT22;32497;48.936;9.270;2022-08-11T19:42:17;24.30;33.40
46752;DHT22;32497;48.936;9.270;2022-08-11T19:47:20;24.20;32.30
46752;DHT22;32497;48.936;9.270;2022-08-11T19:52:22;24.00;33.20
46752;DHT22;32497;48.936;9.270;2022-08-11T19:57:24;24.00;33.00
46752;DHT22;32497;48.936;9.270;2022-08-11T20:02:27;24.00;33.60
46752;DHT22;32497;48.936;9.270;2022-08-11T20:07:29;24.00;33.30
46752;DHT22;32497;48.936;9.270;2022-08-11T20:12:31;23.90;33.40
46752;DHT22;32497;48.936;9.270;2022-08-11T20:17:37;23.90;33.30
46752;DHT22;32497;48.936;9.270;2022-08-11T20:22:39;23.70;33.90
46752;DHT22;32497;48.936;9.270;2022-08-11T20:27:42;23.60;34.40
46752;DHT22;32497;48.936;9.270;2022-08-11T20:32:46;23.50;34.00
46752;DHT22;32497;48.936;9.270;2022-08-11T20:37:48;23.40;33.20
46752;DHT22;32497;48.936;9.270;2022-08-11T20:42:50;23.40;33.80
46752;DHT22;32497;48.936;9.270;2022-08-11T20:47:54;23.50;33.70
46752;DHT22;32497;48.936;9.270;2022-08-11T20:52:56;23.50;34.40
46752;DHT22;32497;48.936;9.270;2022-08-11T20:57:58;23.40;33.60
46752;DHT22;32497;48.936;9.270;2022-08-11T21:03:01;23.30;33.60
46752;DHT22;32497;48.936;9.270;2022-08-11T21:08:03;23.20;34.10
46752;DHT22;32497;48.936;9.270;2022-08-11T21:13:06;22.70;33.90
46752;DHT22;32497;48.936;9.270;2022-08-11T21:18:10;22.10;36.20
46752;DHT22;32497;48.936;9.270;2022-08-11T21:23:12;22.20;36.00
46752;DHT22;32497;48.936;9.270;2022-08-11T21:28:17;22.10;36.20
46752;DHT22;32497;48.936;9.270;2022-08-11T21:33:21;22.20;37.40
46752;DHT22;32497;48.936;9.270;2022-08-11T21:38:22;21.70;36.90
46752;DHT22;32497;48.936;9.270;2022-08-11T21:43:24;21.80;38.60
46752;DHT22;32497;48.936;9.270;2022-08-11T21:48:28;21.60;37.90
46752;DHT22;32497;48.936;9.270;2022-08-11T21:53:31;21.30;37.50
46752;DHT22;32497;48.936;9.270;2022-08-11T21:58:33;21.00;37.40
46752;DHT22;32497;48.936;9.270;2022-08-11T22:03:35;21.00;37.20
46752;DHT22;32497;48.936;9.270;2022-08-11T22:08:38;21.00;37.20
46752;DHT22;32497;48.936;9.270;2022-08-11T22:13:40;21.20;37.80
46752;DHT22;32497;48.936;9.270;2022-08-11T22:18:43;21.20;37.30
46752;DHT22;32497;48.936;9.270;2022-08-11T22:23:45;21.20;38.70
46752;DHT22;32497;48.936;9.270;2022-08-11T22:28:47;21.20;39.20
46752;DHT22;32497;48.936;9.270;2022-08-11T22:33:49;21.20;38.90
46752;DHT22;32497;48.936;9.270;2022-08-11T22:38:51;21.20;39.80
46752;DHT22;32497;48.936;9.270;2022-08-11T22:43:53;21.00;40.50
46752;DHT22;32497;48.936;9.270;2022-08-11T22:48:55;21.00;39.50
46752;DHT22;32497;48.936;9.270;2022-08-11T22:53:59;21.00;39.30
46752;DHT22;32497;48.936;9.270;2022-08-11T22:59:01;20.90;40.20
46752;DHT22;32497;48.936;9.270;2022-08-11T23:04:04;20.90;40.10
46752;DHT22;32497;48.936;9.270;2022-08-11T23:09:07;20.80;40.50
46752;DHT22;32497;48.936;9.270;2022-08-11T23:14:09;20.80;40.00
46752;DHT22;32497;48.936;9.270;2022-08-11T23:19:12;20.70;41.30
46752;DHT22;32497;48.936;9.270;2022-08-11T23:24:13;20.50;41.60
46752;DHT22;32497;48.936;9.270;2022-08-11T23:29:14;20.40;41.60
46752;DHT22;32497;48.936;9.270;2022-08-11T23:34:21;20.40;41.40
46752;DHT22;32497;48.936;9.270;2022-08-11T23:39:22;20.40;41.20
46752;DHT22;32497;48.936;9.270;2022-08-11T23:44:23;20.40;41.40
46752;DHT22;32497;48.936;9.270;2022-08-11T23:49:26;20.40;40.90
46752;DHT22;32497;48.936;9.270;2022-08-11T23:54:28;20.40;42.10
46752;DHT22;32497;48.936;9.270;2022-08-11T23:59:30;20.40;41.90
